sensor_id;sensor_type;location;lat;lon;timestamp;temperature;humidity
23717;DHT22;22094;52.130;5.598;2023-06-26T00:00:46;23.30;99.90
23717;DHT22;22094;52.130;5.598;2023-06-26T00:03:13;23.30;99.90
23717;DHT22;22094;52.130;5.598;2023-06-26T00:05:41;23.30;99.90
23717;DHT22;22094;52.130;5.598;2023-06-26T00:08:07;23.30;99.90
23717;DHT22;22094;52.130;5.598;2023-06-26T00:10:32;23.30;1.00
23717;DHT22;22094;52.130;5.598;2023-06-26T00:12:58;23.20;1.00
23717;DHT22;22094;52.130;5.598;2023-06-26T00:15:24;23.20;1.00
23717;DHT22;22094;52.130;5.598;2023-06-26T00:17:49;23.10;1.00
23717;DHT22;22094;52.130;5.598;2023-06-26T00:20:16;23.10;1.00
23717;DHT22;22094;52.130;5.598;2023-06-26T00:22:42;23.10;31.00
23717;DHT22;22094;52.130;5.598;2023-06-26T00:25:07;23.10;72.10
23717;DHT22;22094;52.130;5.598;2023-06-26T00:27:33;23.10;99.90
23717;DHT22;22094;52.130;5.598;2023-06-26T00:29:59;23.20;99.90
23717;DHT22;22094;52.130;5.598;2023-06-26T00:32:24;23.20;31.50
23717;DHT22;22094;52.130;5.598;2023-06-26T00:34:50;23.20;1.00
23717;DHT22;22094;52.130;5.598;2023-06-26T00:37:16;23.20;1.00
23717;DHT22;22094;52.130;5.598;2023-06-26T00:39:41;23.20;14.00
23717;DHT22;22094;52.130;5.598;2023-06-26T00:42:07;23.20;89.50
23717;DHT22;22094;52.130;5.598;2023-06-26T00:44:33;23.20;99.90
23717;DHT22;22094;52.130;5.598;2023-06-26T00:46:59;23.20;99.70
23717;DHT22;22094;52.130;5.598;2023-06-26T00:49:25;23.20;56.40
23717;DHT22;22094;52.130;5.598;2023-06-26T00:51:51;23.20;99.90
23717;DHT22;22094;52.130;5.598;2023-06-26T00:54:17;23.00;99.90
23717;DHT22;22094;52.130;5.598;2023-06-26T00:56:46;23.00;68.00
23717;DHT22;22094;52.130;5.598;2023-06-26T00:59:12;23.10;92.80
23717;DHT22;22094;52.130;5.598;2023-06-26T01:01:38;22.90;99.90
23717;DHT22;22094;52.130;5.598;2023-06-26T01:04:03;22.70;99.90
23717;DHT22;22094;52.130;5.598;2023-06-26T01:06:32;22.70;1.00
23717;DHT22;22094;52.130;5.598;2023-06-26T01:09:01;22.70;1.00
23717;DHT22;22094;52.130;5.598;2023-06-26T01:11:27;22.60;99.90
23717;DHT22;22094;52.130;5.598;2023-06-26T01:13:53;22.50;99.90
23717;DHT22;22094;52.130;5.598;2023-06-26T01:16:21;22.50;1.00
23717;DHT22;22094;52.130;5.598;2023-06-26T01:18:48;22.40;1.00
23717;DHT22;22094;52.130;5.598;2023-06-26T01:21:14;22.40;1.00
23717;DHT22;22094;52.130;5.598;2023-06-26T01:26:22;22.40;1.00
23717;DHT22;22094;52.130;5.598;2023-06-26T01:28:50;22.40;1.00
23717;DHT22;22094;52.130;5.598;2023-06-26T01:31:17;22.40;1.00
23717;DHT22;22094;52.130;5.598;2023-06-26T01:33:43;22.60;1.00
23717;DHT22;22094;52.130;5.598;2023-06-26T01:36:10;22.50;1.00
23717;DHT22;22094;52.130;5.598;2023-06-26T01:38:36;22.50;1.00
23717;DHT22;22094;52.130;5.598;2023-06-26T01:41:03;22.50;1.00
23717;DHT22;22094;52.130;5.598;2023-06-26T01:46:37;22.40;99.90
23717;DHT22;22094;52.130;5.598;2023-06-26T01:49:33;22.40;99.90
23717;DHT22;22094;52.130;5.598;2023-06-26T01:57:27;22.40;1.00
23717;DHT22;22094;52.130;5.598;2023-06-26T01:59:54;22.30;1.00
23717;DHT22;22094;52.130;5.598;2023-06-26T02:02:23;22.20;1.00
23717;DHT22;22094;52.130;5.598;2023-06-26T02:04:49;22.30;1.00
23717;DHT22;22094;52.130;5.598;2023-06-26T02:07:15;22.20;1.00
23717;DHT22;22094;52.130;5.598;2023-06-26T02:09:41;22.30;1.00
23717;DHT22;22094;52.130;5.598;2023-06-26T02:12:07;22.10;99.90
23717;DHT22;22094;52.130;5.598;2023-06-26T02:14:33;22.10;99.90
23717;DHT22;22094;52.130;5.598;2023-06-26T02:16:58;22.10;99.90
23717;DHT22;22094;52.130;5.598;2023-06-26T02:19:25;22.00;99.90
23717;DHT22;22094;52.130;5.598;2023-06-26T02:21:53;22.00;99.90
23717;DHT22;22094;52.130;5.598;2023-06-26T02:24:19;21.90;1.00
23717;DHT22;22094;52.130;5.598;2023-06-26T02:26:44;21.80;1.00
23717;DHT22;22094;52.130;5.598;2023-06-26T02:29:11;21.70;1.00
23717;DHT22;22094;52.130;5.598;2023-06-26T02:31:37;21.60;1.00
23717;DHT22;22094;52.130;5.598;2023-06-26T02:34:03;21.60;1.00
23717;DHT22;22094;52.130;5.598;2023-06-26T02:36:29;21.50;1.00
23717;DHT22;22094;52.130;5.598;2023-06-26T02:38:54;21.50;1.00
23717;DHT22;22094;52.130;5.598;2023-06-26T02:41:20;21.50;99.90
23717;DHT22;22094;52.130;5.598;2023-06-26T02:43:45;21.30;99.90
23717;DHT22;22094;52.130;5.598;2023-06-26T02:46:11;21.20;99.90
23717;DHT22;22094;52.130;5.598;2023-06-26T02:48:37;21.20;99.90
23717;DHT22;22094;52.130;5.598;2023-06-26T02:51:02;21.20;99.90
23717;DHT22;22094;52.130;5.598;2023-06-26T02:53:28;21.10;1.00
23717;DHT22;22094;52.130;5.598;2023-06-26T02:55:53;21.10;1.00
23717;DHT22;22094;52.130;5.598;2023-06-26T02:58:19;21.10;1.00
23717;DHT22;22094;52.130;5.598;2023-06-26T03:00:45;21.10;1.00
23717;DHT22;22094;52.130;5.598;2023-06-26T03:03:10;21.00;1.00
23717;DHT22;22094;52.130;5.598;2023-06-26T03:05:38;21.10;40.40
23717;DHT22;22094;52.130;5.598;2023-06-26T03:08:03;20.90;99.90
23717;DHT22;22094;52.130;5.598;2023-06-26T03:10:29;20.80;99.90
23717;DHT22;22094;52.130;5.598;2023-06-26T03:12:55;20.80;99.90
23717;DHT22;22094;52.130;5.598;2023-06-26T03:15:20;20.70;99.90
23717;DHT22;22094;52.130;5.598;2023-06-26T03:17:46;20.60;1.00
23717;DHT22;22094;52.130;5.598;2023-06-26T03:20:11;20.60;1.00
23717;DHT22;22094;52.130;5.598;2023-06-26T03:22:37;20.60;1.00
23717;DHT22;22094;52.130;5.598;2023-06-26T03:25:03;20.50;1.00
23717;DHT22;22094;52.130;5.598;2023-06-26T03:27:30;20.50;1.00
23717;DHT22;22094;52.130;5.598;2023-06-26T03:29:58;20.60;1.00
23717;DHT22;22094;52.130;5.598;2023-06-26T03:32:24;20.50;1.00
23717;DHT22;22094;52.130;5.598;2023-06-26T03:34:49;20.50;1.00
23717;DHT22;22094;52.130;5.598;2023-06-26T03:37:15;20.50;1.00
23717;DHT22;22094;52.130;5.598;2023-06-26T03:39:41;20.40;1.00
23717;DHT22;22094;52.130;5.598;2023-06-26T03:42:07;20.40;1.00
23717;DHT22;22094;52.130;5.598;2023-06-26T03:44:33;20.50;1.00
23717;DHT22;22094;52.130;5.598;2023-06-26T03:46:58;20.50;1.00
23717;DHT22;22094;52.130;5.598;2023-06-26T03:49:24;20.50;1.00
23717;DHT22;22094;52.130;5.598;2023-06-26T03:51:49;20.50;1.00
23717;DHT22;22094;52.130;5.598;2023-06-26T03:54:15;20.60;1.00
23717;DHT22;22094;52.130;5.598;2023-06-26T03:56:40;20.60;1.00
23717;DHT22;22094;52.130;5.598;2023-06-26T03:59:06;20.70;1.00
23717;DHT22;22094;52.130;5.598;2023-06-26T04:01:32;19.90;1.00
23717;DHT22;22094;52.130;5.598;2023-06-26T04:03:57;20.50;1.00
23717;DHT22;22094;52.130;5.598;2023-06-26T04:06:23;20.50;1.00
23717;DHT22;22094;52.130;5.598;2023-06-26T04:08:49;20.50;1.00
23717;DHT22;22094;52.130;5.598;2023-06-26T04:18:32;20.30;99.90
23717;DHT22;22094;52.130;5.598;2023-06-26T04:21:16;20.30;99.90
23717;DHT22;22094;52.130;5.598;2023-06-26T04:23:42;21.00;99.90
23717;DHT22;22094;52.130;5.598;2023-06-26T04:26:08;20.20;95.00
23717;DHT22;22094;52.130;5.598;2023-06-26T04:28:34;20.30;21.20
23717;DHT22;22094;52.130;5.598;2023-06-26T04:33:30;20.40;1.00
23717;DHT22;22094;52.130;5.598;2023-06-26T04:40:48;21.10;1.00
23717;DHT22;22094;52.130;5.598;2023-06-26T04:50:32;20.70;99.90
23717;DHT22;22094;52.130;5.598;2023-06-26T04:57:51;21.50;1.00
23717;DHT22;22094;52.130;5.598;2023-06-26T05:00:17;21.20;1.00
23717;DHT22;22094;52.130;5.598;2023-06-26T05:05:09;21.70;1.00
23717;DHT22;22094;52.130;5.598;2023-06-26T05:07:36;23.70;1.00
23717;DHT22;22094;52.130;5.598;2023-06-26T05:10:02;20.30;1.00
23717;DHT22;22094;52.130;5.598;2023-06-26T05:14:53;22.00;26.90
23717;DHT22;22094;52.130;5.598;2023-06-26T05:17:19;20.70;99.90
23717;DHT22;22094;52.130;5.598;2023-06-26T05:19:44;19.60;1.00
23717;DHT22;22094;52.130;5.598;2023-06-26T05:22:12;22.70;1.00
23717;DHT22;22094;52.130;5.598;2023-06-26T05:24:39;21.70;1.00
23717;DHT22;22094;52.130;5.598;2023-06-26T05:27:05;21.40;1.00
23717;DHT22;22094;52.130;5.598;2023-06-26T05:29:32;21.60;99.90
23717;DHT22;22094;52.130;5.598;2023-06-26T05:31:58;21.50;26.30
23717;DHT22;22094;52.130;5.598;2023-06-26T05:34:24;21.50;99.90
23717;DHT22;22094;52.130;5.598;2023-06-26T05:36:51;21.90;99.90
23717;DHT22;22094;52.130;5.598;2023-06-26T05:39:18;24.00;99.90
23717;DHT22;22094;52.130;5.598;2023-06-26T05:41:44;22.10;1.00
23717;DHT22;22094;52.130;5.598;2023-06-26T05:44:10;21.80;94.90
23717;DHT22;22094;52.130;5.598;2023-06-26T05:51:28;22.40;1.00
23717;DHT22;22094;52.130;5.598;2023-06-26T05:53:54;22.10;1.00
23717;DHT22;22094;52.130;5.598;2023-06-26T05:56:20;19.70;99.90
23717;DHT22;22094;52.130;5.598;2023-06-26T05:58:46;23.10;1.20
23717;DHT22;22094;52.130;5.598;2023-06-26T06:01:12;21.70;91.30
23717;DHT22;22094;52.130;5.598;2023-06-26T06:03:39;22.60;1.00
23717;DHT22;22094;52.130;5.598;2023-06-26T06:06:05;24.50;99.90
23717;DHT22;22094;52.130;5.598;2023-06-26T06:08:30;24.70;99.90
23717;DHT22;22094;52.130;5.598;2023-06-26T06:15:49;23.30;1.00
23717;DHT22;22094;52.130;5.598;2023-06-26T06:18:15;22.80;99.90
23717;DHT22;22094;52.130;5.598;2023-06-26T06:20:40;23.80;1.00
23717;DHT22;22094;52.130;5.598;2023-06-26T06:27:58;21.10;1.00
23717;DHT22;22094;52.130;5.598;2023-06-26T06:30:23;21.50;99.90
23717;DHT22;22094;52.130;5.598;2023-06-26T06:32:49;21.80;99.90
23717;DHT22;22094;52.130;5.598;2023-06-26T06:35:21;24.70;48.30
23717;DHT22;22094;52.130;5.598;2023-06-26T06:37:46;24.00;99.90
23717;DHT22;22094;52.130;5.598;2023-06-26T06:40:12;22.90;1.00
23717;DHT22;22094;52.130;5.598;2023-06-26T06:42:38;23.90;1.00
23717;DHT22;22094;52.130;5.598;2023-06-26T06:45:05;24.80;1.00
23717;DHT22;22094;52.130;5.598;2023-06-26T06:47:32;25.10;1.00
23717;DHT22;22094;52.130;5.598;2023-06-26T06:49:57;23.80;99.90
23717;DHT22;22094;52.130;5.598;2023-06-26T06:52:24;23.30;1.00
23717;DHT22;22094;52.130;5.598;2023-06-26T06:54:54;23.50;1.00
23717;DHT22;22094;52.130;5.598;2023-06-26T06:57:21;24.10;1.00
23717;DHT22;22094;52.130;5.598;2023-06-26T06:59:47;23.50;1.00
23717;DHT22;22094;52.130;5.598;2023-06-26T07:02:14;24.80;1.00
23717;DHT22;22094;52.130;5.598;2023-06-26T07:09:34;22.90;1.00
23717;DHT22;22094;52.130;5.598;2023-06-26T07:11:59;24.60;99.90
23717;DHT22;22094;52.130;5.598;2023-06-26T07:14:25;22.80;99.90
23717;DHT22;22094;52.130;5.598;2023-06-26T07:16:51;23.40;1.00
23717;DHT22;22094;52.130;5.598;2023-06-26T07:21:42;23.60;99.90
23717;DHT22;22094;52.130;5.598;2023-06-26T07:24:10;24.20;1.00
23717;DHT22;22094;52.130;5.598;2023-06-26T07:26:36;21.90;1.00
23717;DHT22;22094;52.130;5.598;2023-06-26T07:29:01;23.20;1.00
23717;DHT22;22094;52.130;5.598;2023-06-26T07:31:27;24.10;99.90
23717;DHT22;22094;52.130;5.598;2023-06-26T07:33:52;24.00;1.00
23717;DHT22;22094;52.130;5.598;2023-06-26T07:38:44;23.40;99.90
23717;DHT22;22094;52.130;5.598;2023-06-26T07:41:09;25.60;99.90
23717;DHT22;22094;52.130;5.598;2023-06-26T07:43:35;22.90;99.90
23717;DHT22;22094;52.130;5.598;2023-06-26T07:46:01;24.40;99.90
23717;DHT22;22094;52.130;5.598;2023-06-26T07:50:52;24.60;1.00
23717;DHT22;22094;52.130;5.598;2023-06-26T07:53:19;23.30;1.00
23717;DHT22;22094;52.130;5.598;2023-06-26T07:58:10;22.80;99.90
23717;DHT22;22094;52.130;5.598;2023-06-26T08:00:36;24.10;1.00
23717;DHT22;22094;52.130;5.598;2023-06-26T08:03:02;24.10;99.90
23717;DHT22;22094;52.130;5.598;2023-06-26T08:07:53;26.20;1.00
23717;DHT22;22094;52.130;5.598;2023-06-26T08:15:12;26.30;1.00
23717;DHT22;22094;52.130;5.598;2023-06-26T08:17:38;27.40;1.00
23717;DHT22;22094;52.130;5.598;2023-06-26T08:20:04;24.60;1.00
23717;DHT22;22094;52.130;5.598;2023-06-26T08:22:30;24.20;1.00
23717;DHT22;22094;52.130;5.598;2023-06-26T08:24:56;23.70;99.90
23717;DHT22;22094;52.130;5.598;2023-06-26T08:29:48;23.60;99.90
23717;DHT22;22094;52.130;5.598;2023-06-26T08:39:34;23.80;1.00
23717;DHT22;22094;52.130;5.598;2023-06-26T08:42:00;24.20;1.00
23717;DHT22;22094;52.130;5.598;2023-06-26T08:44:25;26.60;99.90
23717;DHT22;22094;52.130;5.598;2023-06-26T08:51:49;24.90;99.90
23717;DHT22;22094;52.130;5.598;2023-06-26T08:54:17;24.80;99.90
23717;DHT22;22094;52.130;5.598;2023-06-26T08:56:47;25.50;99.90
23717;DHT22;22094;52.130;5.598;2023-06-26T09:01:41;25.90;99.90
23717;DHT22;22094;52.130;5.598;2023-06-26T09:06:33;26.20;99.90
23717;DHT22;22094;52.130;5.598;2023-06-26T09:13:51;24.90;99.90
23717;DHT22;22094;52.130;5.598;2023-06-26T09:18:45;22.20;99.90
23717;DHT22;22094;52.130;5.598;2023-06-26T09:23:40;24.50;99.90
23717;DHT22;22094;52.130;5.598;2023-06-26T09:31:03;26.80;99.90
23717;DHT22;22094;52.130;5.598;2023-06-26T09:33:36;24.80;99.90
23717;DHT22;22094;52.130;5.598;2023-06-26T09:36:08;24.60;99.90
23717;DHT22;22094;52.130;5.598;2023-06-26T09:41:05;24.50;99.90
23717;DHT22;22094;52.130;5.598;2023-06-26T09:45:57;25.10;99.90
23717;DHT22;22094;52.130;5.598;2023-06-26T09:58:13;25.80;99.90
23717;DHT22;22094;52.130;5.598;2023-06-26T10:00:41;25.70;99.90
23717;DHT22;22094;52.130;5.598;2023-06-26T10:03:07;26.20;99.90
23717;DHT22;22094;52.130;5.598;2023-06-26T10:08:01;25.70;99.90
23717;DHT22;22094;52.130;5.598;2023-06-26T10:10:27;24.10;99.90
23717;DHT22;22094;52.130;5.598;2023-06-26T10:12:58;24.10;99.90
23717;DHT22;22094;52.130;5.598;2023-06-26T10:15:25;24.20;99.90
23717;DHT22;22094;52.130;5.598;2023-06-26T10:17:55;24.50;99.90
23717;DHT22;22094;52.130;5.598;2023-06-26T10:25:18;25.00;99.90
23717;DHT22;22094;52.130;5.598;2023-06-26T10:27:53;25.30;99.90
23717;DHT22;22094;52.130;5.598;2023-06-26T10:30:22;24.60;99.90
23717;DHT22;22094;52.130;5.598;2023-06-26T10:32:50;26.10;99.90
23717;DHT22;22094;52.130;5.598;2023-06-26T10:42:37;26.70;99.90
23717;DHT22;22094;52.130;5.598;2023-06-26T10:45:23;24.90;99.90
23717;DHT22;22094;52.130;5.598;2023-06-26T10:50:22;24.90;99.90
23717;DHT22;22094;52.130;5.598;2023-06-26T10:53:24;24.20;99.90
23717;DHT22;22094;52.130;5.598;2023-06-26T10:56:04;24.20;99.90
23717;DHT22;22094;52.130;5.598;2023-06-26T11:01:18;24.70;99.90
23717;DHT22;22094;52.130;5.598;2023-06-26T11:03:46;25.00;99.90
23717;DHT22;22094;52.130;5.598;2023-06-26T11:06:17;24.90;99.90
23717;DHT22;22094;52.130;5.598;2023-06-26T11:08:48;25.20;99.90
23717;DHT22;22094;52.130;5.598;2023-06-26T11:11:14;25.40;99.90
23717;DHT22;22094;52.130;5.598;2023-06-26T11:13:41;25.00;99.90
23717;DHT22;22094;52.130;5.598;2023-06-26T11:16:06;24.30;99.90
23717;DHT22;22094;52.130;5.598;2023-06-26T11:18:32;24.90;99.90
23717;DHT22;22094;52.130;5.598;2023-06-26T11:21:11;24.70;99.90
23717;DHT22;22094;52.130;5.598;2023-06-26T11:23:40;23.80;99.90
23717;DHT22;22094;52.130;5.598;2023-06-26T11:26:19;24.20;99.90
23717;DHT22;22094;52.130;5.598;2023-06-26T11:28:50;24.10;99.90
23717;DHT22;22094;52.130;5.598;2023-06-26T11:31:27;24.60;99.90
23717;DHT22;22094;52.130;5.598;2023-06-26T11:33:57;24.70;99.90
23717;DHT22;22094;52.130;5.598;2023-06-26T11:36:24;25.30;99.90
23717;DHT22;22094;52.130;5.598;2023-06-26T11:43:47;24.80;99.90
23717;DHT22;22094;52.130;5.598;2023-06-26T11:53:39;25.40;99.90
23717;DHT22;22094;52.130;5.598;2023-06-26T11:56:10;25.50;99.90
23717;DHT22;22094;52.130;5.598;2023-06-26T11:58:57;25.80;99.90
23717;DHT22;22094;52.130;5.598;2023-06-26T12:01:34;26.60;99.90
23717;DHT22;22094;52.130;5.598;2023-06-26T12:06:28;27.10;99.90
23717;DHT22;22094;52.130;5.598;2023-06-26T12:08:54;26.00;99.90
23717;DHT22;22094;52.130;5.598;2023-06-26T12:11:23;26.20;99.90
23717;DHT22;22094;52.130;5.598;2023-06-26T12:13:50;26.50;99.90
23717;DHT22;22094;52.130;5.598;2023-06-26T12:23:38;26.00;99.90
23717;DHT22;22094;52.130;5.598;2023-06-26T12:26:20;26.10;99.90
23717;DHT22;22094;52.130;5.598;2023-06-26T12:31:16;28.20;99.90
23717;DHT22;22094;52.130;5.598;2023-06-26T12:33:44;26.00;99.90
23717;DHT22;22094;52.130;5.598;2023-06-26T12:36:13;25.50;99.90
23717;DHT22;22094;52.130;5.598;2023-06-26T12:38:40;27.10;99.90
23717;DHT22;22094;52.130;5.598;2023-06-26T12:48:41;26.50;99.90
23717;DHT22;22094;52.130;5.598;2023-06-26T12:51:15;26.30;99.90
23717;DHT22;22094;52.130;5.598;2023-06-26T12:53:41;26.30;99.90
23717;DHT22;22094;52.130;5.598;2023-06-26T12:56:07;26.30;99.90
23717;DHT22;22094;52.130;5.598;2023-06-26T12:58:35;26.50;99.90
23717;DHT22;22094;52.130;5.598;2023-06-26T13:01:06;24.50;99.90
23717;DHT22;22094;52.130;5.598;2023-06-26T13:06:06;27.10;99.90
23717;DHT22;22094;52.130;5.598;2023-06-26T13:08:33;26.60;99.90
23717;DHT22;22094;52.130;5.598;2023-06-26T13:47:31;28.00;99.90
23717;DHT22;22094;52.130;5.598;2023-06-26T13:52:25;29.00;99.90
23717;DHT22;22094;52.130;5.598;2023-06-26T14:02:10;28.50;99.90
23717;DHT22;22094;52.130;5.598;2023-06-26T14:04:36;26.80;99.90
23717;DHT22;22094;52.130;5.598;2023-06-26T14:07:02;27.90;99.90
23717;DHT22;22094;52.130;5.598;2023-06-26T14:09:28;26.10;99.90
23717;DHT22;22094;52.130;5.598;2023-06-26T14:14:20;26.00;99.90
23717;DHT22;22094;52.130;5.598;2023-06-26T14:19:15;29.40;99.90
23717;DHT22;22094;52.130;5.598;2023-06-26T14:21:43;28.90;99.90
23717;DHT22;22094;52.130;5.598;2023-06-26T14:24:08;27.10;99.90
23717;DHT22;22094;52.130;5.598;2023-06-26T14:26:34;25.80;99.90
23717;DHT22;22094;52.130;5.598;2023-06-26T14:29:00;26.00;99.90
23717;DHT22;22094;52.130;5.598;2023-06-26T14:31:26;25.30;99.90
23717;DHT22;22094;52.130;5.598;2023-06-26T14:33:52;26.40;99.90
23717;DHT22;22094;52.130;5.598;2023-06-26T14:36:17;24.10;99.90
23717;DHT22;22094;52.130;5.598;2023-06-26T14:38:44;25.10;99.90
23717;DHT22;22094;52.130;5.598;2023-06-26T14:43:36;25.40;99.90
23717;DHT22;22094;52.130;5.598;2023-06-26T14:46:01;27.20;99.90
23717;DHT22;22094;52.130;5.598;2023-06-26T14:48:27;28.60;99.90
23717;DHT22;22094;52.130;5.598;2023-06-26T14:53:19;29.20;99.90
23717;DHT22;22094;52.130;5.598;2023-06-26T15:00:36;29.10;99.90
23717;DHT22;22094;52.130;5.598;2023-06-26T15:03:02;30.20;99.90
23717;DHT22;22094;52.130;5.598;2023-06-26T15:05:27;29.10;99.90
23717;DHT22;22094;52.130;5.598;2023-06-26T15:07:53;29.20;99.90
23717;DHT22;22094;52.130;5.598;2023-06-26T15:12:45;30.00;99.90
23717;DHT22;22094;52.130;5.598;2023-06-26T15:15:10;30.50;99.90
23717;DHT22;22094;52.130;5.598;2023-06-26T15:17:36;30.20;99.90
23717;DHT22;22094;52.130;5.598;2023-06-26T15:20:02;28.60;99.90
23717;DHT22;22094;52.130;5.598;2023-06-26T15:22:27;29.70;99.90
23717;DHT22;22094;52.130;5.598;2023-06-26T15:24:53;29.50;99.90
23717;DHT22;22094;52.130;5.598;2023-06-26T15:29:45;29.30;99.90
23717;DHT22;22094;52.130;5.598;2023-06-26T15:32:11;29.00;99.90
23717;DHT22;22094;52.130;5.598;2023-06-26T15:34:36;30.30;99.90
23717;DHT22;22094;52.130;5.598;2023-06-26T15:37:02;31.10;99.90
23717;DHT22;22094;52.130;5.598;2023-06-26T15:39:28;30.70;99.90
23717;DHT22;22094;52.130;5.598;2023-06-26T15:41:53;30.60;99.90
23717;DHT22;22094;52.130;5.598;2023-06-26T15:44:19;30.00;99.90
23717;DHT22;22094;52.130;5.598;2023-06-26T15:46:45;28.40;99.90
23717;DHT22;22094;52.130;5.598;2023-06-26T15:51:37;28.90;99.90
23717;DHT22;22094;52.130;5.598;2023-06-26T15:54:05;28.90;99.90
23717;DHT22;22094;52.130;5.598;2023-06-26T15:56:31;28.80;99.90
23717;DHT22;22094;52.130;5.598;2023-06-26T15:58:57;29.30;99.90
23717;DHT22;22094;52.130;5.598;2023-06-26T16:01:23;27.60;99.90
23717;DHT22;22094;52.130;5.598;2023-06-26T16:03:49;27.20;99.90
23717;DHT22;22094;52.130;5.598;2023-06-26T16:06:15;26.70;99.90
23717;DHT22;22094;52.130;5.598;2023-06-26T16:08:41;27.20;99.90
23717;DHT22;22094;52.130;5.598;2023-06-26T16:11:07;28.70;99.90
23717;DHT22;22094;52.130;5.598;2023-06-26T16:13:33;28.70;99.90
23717;DHT22;22094;52.130;5.598;2023-06-26T16:16:00;27.00;99.90
23717;DHT22;22094;52.130;5.598;2023-06-26T16:18:25;28.80;99.90
23717;DHT22;22094;52.130;5.598;2023-06-26T16:20:52;30.70;99.90
23717;DHT22;22094;52.130;5.598;2023-06-26T16:23:18;31.00;99.90
23717;DHT22;22094;52.130;5.598;2023-06-26T16:25:44;29.10;99.90
23717;DHT22;22094;52.130;5.598;2023-06-26T16:28:10;28.30;99.90
23717;DHT22;22094;52.130;5.598;2023-06-26T16:30:36;25.80;99.90
23717;DHT22;22094;52.130;5.598;2023-06-26T16:33:02;27.20;99.90
23717;DHT22;22094;52.130;5.598;2023-06-26T16:35:27;29.10;99.90
23717;DHT22;22094;52.130;5.598;2023-06-26T16:37:55;26.60;99.90
23717;DHT22;22094;52.130;5.598;2023-06-26T16:40:22;26.10;99.90
23717;DHT22;22094;52.130;5.598;2023-06-26T16:42:48;26.90;99.90
23717;DHT22;22094;52.130;5.598;2023-06-26T16:45:14;24.30;99.90
23717;DHT22;22094;52.130;5.598;2023-06-26T16:47:39;25.70;99.90
23717;DHT22;22094;52.130;5.598;2023-06-26T16:50:05;27.90;99.90
23717;DHT22;22094;52.130;5.598;2023-06-26T16:52:31;29.00;99.90
23717;DHT22;22094;52.130;5.598;2023-06-26T16:54:57;28.70;99.90
23717;DHT22;22094;52.130;5.598;2023-06-26T16:57:22;26.80;99.90
23717;DHT22;22094;52.130;5.598;2023-06-26T16:59:48;26.20;99.90
23717;DHT22;22094;52.130;5.598;2023-06-26T17:02:13;27.40;99.90
23717;DHT22;22094;52.130;5.598;2023-06-26T17:04:39;26.30;99.90
23717;DHT22;22094;52.130;5.598;2023-06-26T17:07:05;27.30;99.90
23717;DHT22;22094;52.130;5.598;2023-06-26T17:09:31;28.40;99.90
23717;DHT22;22094;52.130;5.598;2023-06-26T17:11:57;28.10;99.90
23717;DHT22;22094;52.130;5.598;2023-06-26T17:14:22;27.90;99.90
23717;DHT22;22094;52.130;5.598;2023-06-26T17:16:48;29.50;99.90
23717;DHT22;22094;52.130;5.598;2023-06-26T17:19:13;29.00;99.90
23717;DHT22;22094;52.130;5.598;2023-06-26T17:21:39;28.40;99.90
23717;DHT22;22094;52.130;5.598;2023-06-26T17:24:05;27.60;99.90
23717;DHT22;22094;52.130;5.598;2023-06-26T17:26:31;28.40;99.90
23717;DHT22;22094;52.130;5.598;2023-06-26T17:28:57;26.90;99.90
23717;DHT22;22094;52.130;5.598;2023-06-26T17:31:22;27.90;99.90
23717;DHT22;22094;52.130;5.598;2023-06-26T17:33:48;26.60;99.90
23717;DHT22;22094;52.130;5.598;2023-06-26T17:36:13;26.50;99.90
23717;DHT22;22094;52.130;5.598;2023-06-26T17:38:39;23.80;99.90
23717;DHT22;22094;52.130;5.598;2023-06-26T17:41:07;23.50;99.90
23717;DHT22;22094;52.130;5.598;2023-06-26T17:43:33;24.20;99.90
23717;DHT22;22094;52.130;5.598;2023-06-26T17:45:59;23.90;99.90
23717;DHT22;22094;52.130;5.598;2023-06-26T17:48:24;25.50;99.90
23717;DHT22;22094;52.130;5.598;2023-06-26T17:53:16;27.00;99.90
23717;DHT22;22094;52.130;5.598;2023-06-26T17:55:43;25.20;99.90
23717;DHT22;22094;52.130;5.598;2023-06-26T17:58:08;25.70;99.90
23717;DHT22;22094;52.130;5.598;2023-06-26T18:00:34;26.20;99.90
23717;DHT22;22094;52.130;5.598;2023-06-26T18:03:00;26.50;99.90
23717;DHT22;22094;52.130;5.598;2023-06-26T18:05:25;27.60;99.90
23717;DHT22;22094;52.130;5.598;2023-06-26T18:07:51;27.00;99.90
23717;DHT22;22094;52.130;5.598;2023-06-26T18:10:17;26.90;99.90
23717;DHT22;22094;52.130;5.598;2023-06-26T18:12:43;26.50;99.90
23717;DHT22;22094;52.130;5.598;2023-06-26T18:15:09;25.50;99.90
23717;DHT22;22094;52.130;5.598;2023-06-26T18:17:34;26.10;99.90
23717;DHT22;22094;52.130;5.598;2023-06-26T18:20:01;25.90;99.90
23717;DHT22;22094;52.130;5.598;2023-06-26T18:22:28;25.80;99.90
23717;DHT22;22094;52.130;5.598;2023-06-26T18:24:53;25.60;99.90
23717;DHT22;22094;52.130;5.598;2023-06-26T18:27:19;25.50;99.90
23717;DHT22;22094;52.130;5.598;2023-06-26T18:29:44;25.10;99.90
23717;DHT22;22094;52.130;5.598;2023-06-26T18:32:10;24.70;99.90
23717;DHT22;22094;52.130;5.598;2023-06-26T18:34:35;24.00;99.90
23717;DHT22;22094;52.130;5.598;2023-06-26T18:39:27;24.60;99.90
23717;DHT22;22094;52.130;5.598;2023-06-26T18:41:53;24.30;99.90
23717;DHT22;22094;52.130;5.598;2023-06-26T18:46:45;24.20;99.90
23717;DHT22;22094;52.130;5.598;2023-06-26T18:49:10;23.90;99.90
23717;DHT22;22094;52.130;5.598;2023-06-26T18:51:36;23.50;99.90
23717;DHT22;22094;52.130;5.598;2023-06-26T18:54:02;23.20;99.90
23717;DHT22;22094;52.130;5.598;2023-06-26T18:56:29;22.60;99.90
23717;DHT22;22094;52.130;5.598;2023-06-26T18:58:55;22.30;99.90
23717;DHT22;22094;52.130;5.598;2023-06-26T19:01:21;22.20;99.90
23717;DHT22;22094;52.130;5.598;2023-06-26T19:03:47;21.40;99.90
23717;DHT22;22094;52.130;5.598;2023-06-26T19:06:13;22.80;99.90
23717;DHT22;22094;52.130;5.598;2023-06-26T19:08:39;20.70;99.90
23717;DHT22;22094;52.130;5.598;2023-06-26T19:11:06;20.70;99.90
23717;DHT22;22094;52.130;5.598;2023-06-26T19:13:31;20.60;99.90
23717;DHT22;22094;52.130;5.598;2023-06-26T19:15:57;20.50;99.90
23717;DHT22;22094;52.130;5.598;2023-06-26T19:18:23;20.40;99.90
23717;DHT22;22094;52.130;5.598;2023-06-26T19:20:48;20.20;99.90
23717;DHT22;22094;52.130;5.598;2023-06-26T19:23:14;20.20;99.90
23717;DHT22;22094;52.130;5.598;2023-06-26T19:25:40;20.20;99.90
23717;DHT22;22094;52.130;5.598;2023-06-26T19:28:05;20.10;99.90
23717;DHT22;22094;52.130;5.598;2023-06-26T19:30:31;19.90;99.90
23717;DHT22;22094;52.130;5.598;2023-06-26T19:32:58;19.90;99.90
23717;DHT22;22094;52.130;5.598;2023-06-26T19:35:23;19.70;99.90
23717;DHT22;22094;52.130;5.598;2023-06-26T19:37:49;19.70;99.90
23717;DHT22;22094;52.130;5.598;2023-06-26T19:40:15;19.60;1.00
23717;DHT22;22094;52.130;5.598;2023-06-26T19:42:40;19.50;1.00
23717;DHT22;22094;52.130;5.598;2023-06-26T19:45:06;19.50;1.00
23717;DHT22;22094;52.130;5.598;2023-06-26T19:47:32;19.40;99.90
23717;DHT22;22094;52.130;5.598;2023-06-26T19:49:58;19.30;1.00